Time;durP1;ratioP1;P1;durP2;ratioP2;P2;SDS_P1;SDS_P2;PMS_P1;PMS_P2;Temp;Humidity;BMP_temperature;BMP_pressure;BME280_temperature;BME280_humidity;BME280_pressure;Samples;Min_cycle;Max_cycle;Signal;HPM_P1;HPM_P2
2022/10/02 00:00:43;;;;;;;;;;;;;;;18.86;57.12;100452.53;4940737;28;7441;-79
2022/10/02 00:03:20;;;;;;;;;;;;;;;18.85;56.45;100455.97;4942252;28;7679;-79
2022/10/02 00:06:09;;;;;;;;;;;;;;;18.85;56.65;100463.78;4941777;28;6808;-80
2022/10/02 00:08:40;;;;;;;;;;;;;;;18.81;56.91;100462.00;4941495;28;8135;-80
2022/10/02 00:11:25;;;;;;;;;;;;;;;18.80;56.45;100469.75;4941859;28;6972;-78
2022/10/02 00:13:57;;;;;;;;;;;;;;;18.77;56.66;100464.53;4925664;28;7456;-80
2022/10/02 00:16:42;;;;;;;;;;;;;;;18.74;57.17;100453.25;4941739;28;7080;-80
2022/10/02 00:19:14;;;;;;;;;;;;;;;18.76;57.54;100462.78;4940228;28;7228;-80
2022/10/02 00:22:00;;;;;;;;;;;;;;;18.76;57.12;100468.81;4929102;28;7179;-79
2022/10/02 00:25:12;;;;;;;;;;;;;;;18.81;57.69;100479.28;4929709;28;8330;-80
2022/10/02 00:28:02;;;;;;;;;;;;;;;18.82;57.63;100473.22;4923155;28;7288;-81
2022/10/02 00:30:57;;;;;;;;;;;;;;;18.83;57.09;100486.25;4939467;28;8020;-80
2022/10/02 00:33:50;;;;;;;;;;;;;;;18.86;57.51;100486.28;4939786;28;7234;-80
2022/10/02 00:36:46;;;;;;;;;;;;;;;18.87;57.07;100492.38;4939721;28;7278;-78
2022/10/02 00:39:51;;;;;;;;;;;;;;;18.90;57.40;100484.63;4938824;28;8687;-79
2022/10/02 00:42:53;;;;;;;;;;;;;;;18.93;57.30;100489.88;4942167;28;7208;-80
2022/10/02 00:45:35;;;;;;;;;;;;;;;18.96;57.58;100486.44;4941495;28;7231;-79
2022/10/02 00:48:39;;;;;;;;;;;;;;;18.98;57.52;100484.75;4939732;28;6965;-81
2022/10/02 00:51:27;;;;;;;;;;;;;;;18.99;57.31;100491.69;4919946;28;7230;-79
2022/10/02 00:54:30;;;;;;;;;;;;;;;19.00;57.34;100486.53;4940147;28;6988;-80
2022/10/02 00:57:01;;;;;;;;;;;;;;;19.00;57.40;100486.53;4941289;28;7055;-81
2022/10/02 00:59:45;;;;;;;;;;;;;;;19.01;57.43;100485.66;4940885;28;6935;-80
2022/10/02 01:02:40;;;;;;;;;;;;;;;19.03;57.71;100487.44;4938630;28;8843;-78
2022/10/02 01:05:08;;;;;;;;;;;;;;;19.03;57.31;100487.44;4938066;28;7000;-79
2022/10/02 01:07:40;;;;;;;;;;;;;;;19.03;57.08;100498.69;4938612;28;6963;-79
2022/10/02 01:10:08;;;;;;;;;;;;;;;19.05;56.89;100496.13;4941347;28;6888;-80
2022/10/02 01:12:34;;;;;;;;;;;;;;;19.06;57.13;100498.72;4940556;28;7276;-79
2022/10/02 01:15:00;;;;;;;;;;;;;;;19.07;57.41;100500.47;4941373;28;6820;-81
2022/10/02 01:17:31;;;;;;;;;;;;;;;19.09;57.20;100500.50;4940676;28;6852;-81
2022/10/02 01:20:04;;;;;;;;;;;;;;;19.09;57.08;100498.78;4941435;28;8790;-80
2022/10/02 01:23:06;;;;;;;;;;;;;;;19.10;57.54;100489.25;4940145;28;6804;-81
2022/10/02 01:25:32;;;;;;;;;;;;;;;19.08;57.69;100493.56;4941249;28;6828;-80
2022/10/02 01:27:58;;;;;;;;;;;;;;;19.07;57.49;100495.28;4940221;28;7232;-80
2022/10/02 01:30:24;;;;;;;;;;;;;;;19.09;57.41;100495.31;4936506;28;6796;-81
2022/10/02 01:32:57;;;;;;;;;;;;;;;19.08;57.10;100491.84;4938745;28;6832;-79
2022/10/02 01:35:30;;;;;;;;;;;;;;;19.10;57.42;100489.25;4937141;28;6952;-80
2022/10/02 01:38:01;;;;;;;;;;;;;;;19.10;56.91;100497.94;4936175;28;6812;-79
2022/10/02 01:40:31;;;;;;;;;;;;;;;19.12;57.42;100495.34;4918789;29;8496;-80
2022/10/02 01:43:11;;;;;;;;;;;;;;;19.15;57.42;100495.41;4923577;29;6966;-80
2022/10/02 01:46:37;;;;;;;;;;;;;;;19.17;57.79;100490.22;4940106;28;6951;-79
2022/10/02 01:49:30;;;;;;;;;;;;;;;19.17;57.04;100493.69;4911974;29;7127;-80
2022/10/02 01:52:12;;;;;;;;;;;;;;;19.22;57.14;100498.97;4939933;28;6868;-79
2022/10/02 01:54:49;;;;;;;;;;;;;;;19.24;57.66;100489.44;4938755;28;7255;-81
2022/10/02 01:57:58;;;;;;;;;;;;;;;19.26;57.77;100491.22;4941591;28;7285;-80
2022/10/02 02:00:27;;;;;;;;;;;;;;;19.27;57.31;100485.19;4938203;28;7270;-80
2022/10/02 02:03:27;;;;;;;;;;;;;;;19.34;57.43;100485.28;4938680;28;6803;-80
2022/10/02 02:06:02;;;;;;;;;;;;;;;19.34;57.00;100483.53;4943734;28;6838;-80
2022/10/02 02:08:46;;;;;;;;;;;;;;;19.36;56.75;100487.03;4943415;28;7180;-80
2022/10/02 02:11:17;;;;;;;;;;;;;;;19.35;57.45;100480.06;4943716;28;6820;-78
2022/10/02 02:14:24;;;;;;;;;;;;;;;19.36;57.23;100491.34;4929064;28;6985;-78
2022/10/02 02:17:01;;;;;;;;;;;;;;;19.34;57.72;100493.06;4947836;28;7062;-78
2022/10/02 02:19:39;;;;;;;;;;;;;;;19.35;56.78;100490.47;4942585;28;10210;-80
2022/10/02 02:22:18;;;;;;;;;;;;;;;19.37;57.36;100486.19;4942405;28;7188;-80
2022/10/02 02:25:17;;;;;;;;;;;;;;;19.37;56.77;100496.59;4945395;28;7144;-80
2022/10/02 02:27:50;;;;;;;;;;;;;;;19.38;57.12;100481.84;4932655;28;8261;-80
2022/10/02 02:30:18;;;;;;;;;;;;;;;19.37;57.01;100482.69;4942635;28;6859;-80
2022/10/02 02:32:58;;;;;;;;;;;;;;;19.38;56.69;100487.03;4943040;28;6857;-79
2022/10/02 02:35:32;;;;;;;;;;;;;;;19.38;56.69;100484.44;4927575;28;8541;-80
2022/10/02 02:38:29;;;;;;;;;;;;;;;19.39;56.85;100496.59;4943616;28;6808;-80
2022/10/02 02:41:04;;;;;;;;;;;;;;;19.40;56.73;100500.91;4941654;28;8343;-80
2022/10/02 02:43:45;;;;;;;;;;;;;;;19.40;56.98;100498.31;4940686;28;7117;-79
2022/10/02 02:47:02;;;;;;;;;;;;;;;19.41;57.01;100500.94;4933930;28;7139;-80
2022/10/02 02:49:26;;;;;;;;;;;;;;;19.42;56.79;100501.84;4939474;28;6969;-80
2022/10/02 02:51:55;;;;;;;;;;;;;;;19.41;56.36;100500.06;4943068;28;7380;-81
2022/10/02 02:54:41;;;;;;;;;;;;;;;19.36;57.17;100499.16;4943647;28;6950;-79
2022/10/02 02:57:11;;;;;;;;;;;;;;;19.28;56.86;100502.50;4942678;28;7209;-81
2022/10/02 02:59:42;;;;;;;;;;;;;;;19.18;57.17;100503.22;4931872;28;8793;-78
2022/10/02 03:02:08;;;;;;;;;;;;;;;19.04;57.01;100508.22;4942508;28;6804;-79
2022/10/02 03:04:33;;;;;;;;;;;;;;;18.91;57.50;100509.72;4941496;28;6780;-80
2022/10/02 03:07:03;;;;;;;;;;;;;;;18.78;57.73;100511.25;4941804;28;6848;-80
2022/10/02 03:09:32;;;;;;;;;;;;;;;18.68;58.34;100515.44;4929115;28;7612;-80
2022/10/02 03:12:22;;;;;;;;;;;;;;;18.62;58.69;100517.06;4942561;28;6864;-80
2022/10/02 03:15:04;;;;;;;;;;;;;;;18.56;58.45;100515.25;4941372;28;7037;-80
2022/10/02 03:18:16;;;;;;;;;;;;;;;18.52;59.12;100510.84;4923663;28;7188;-78
2022/10/02 03:21:04;;;;;;;;;;;;;;;18.45;59.59;100499.47;4920772;29;7251;-79
2022/10/02 03:24:15;;;;;;;;;;;;;;;18.39;59.75;100505.44;4935581;28;7402;-78
2022/10/02 03:27:13;;;;;;;;;;;;;;;18.36;59.65;100495.00;4941141;28;6820;-79
2022/10/02 03:30:01;;;;;;;;;;;;;;;18.30;60.11;100493.19;4925406;28;6991;-79
2022/10/02 03:32:29;;;;;;;;;;;;;;;18.26;60.17;100493.97;4922579;28;7035;-79
2022/10/02 03:34:56;;;;;;;;;;;;;;;18.25;60.10;100493.94;4939744;28;6806;-79
2022/10/02 03:37:24;;;;;;;;;;;;;;;18.23;59.89;100498.22;4940437;28;7247;-79
2022/10/02 03:39:51;;;;;;;;;;;;;;;18.18;60.69;100501.63;4926976;28;6973;-79
2022/10/02 03:42:23;;;;;;;;;;;;;;;18.16;60.19;100505.91;4931770;28;7287;-77
2022/10/02 03:44:49;;;;;;;;;;;;;;;18.14;60.22;100489.41;4940826;28;6812;-79
2022/10/02 03:47:15;;;;;;;;;;;;;;;18.12;60.38;100490.25;4941054;28;6923;-79
2022/10/02 03:49:41;;;;;;;;;;;;;;;18.11;60.86;100494.56;4941199;28;7177;-79
2022/10/02 03:52:14;;;;;;;;;;;;;;;18.13;60.78;100492.00;4939798;28;6923;-77
2022/10/02 03:54:40;;;;;;;;;;;;;;;18.17;60.50;100497.28;4939638;28;7293;-78
2022/10/02 03:57:11;;;;;;;;;;;;;;;18.22;61.15;100506.84;4942513;28;6780;-77
2022/10/02 04:00:13;;;;;;;;;;;;;;;18.26;61.00;100503.50;4938217;28;7025;-77
2022/10/02 04:02:56;;;;;;;;;;;;;;;18.30;61.24;100507.88;4941044;28;11912;-79
2022/10/02 04:05:26;;;;;;;;;;;;;;;18.32;60.68;100504.47;4940734;28;6966;-80
2022/10/02 04:08:01;;;;;;;;;;;;;;;18.35;60.96;100511.44;4940036;28;6997;-80
2022/10/02 04:10:43;;;;;;;;;;;;;;;18.38;60.66;100497.63;4939422;28;6793;-77
2022/10/02 04:13:42;;;;;;;;;;;;;;;18.38;60.85;100501.09;4940003;28;6985;-78
2022/10/02 04:16:39;;;;;;;;;;;;;;;18.39;60.87;100504.56;4926370;28;8709;-79
2022/10/02 04:19:17;;;;;;;;;;;;;;;18.35;60.55;100498.47;4939231;28;7080;-80
2022/10/02 04:21:57;;;;;;;;;;;;;;;18.31;61.01;100504.44;4939918;28;8503;-79
2022/10/02 04:24:37;;;;;;;;;;;;;;;18.30;61.16;100506.16;4939226;28;6875;-80
2022/10/02 04:27:13;;;;;;;;;;;;;;;18.28;60.95;100507.84;4942594;28;7282;-80
2022/10/02 04:30:09;;;;;;;;;;;;;;;18.28;61.48;100510.44;4943294;28;6816;-80
2022/10/02 04:32:36;;;;;;;;;;;;;;;18.27;61.40;100513.88;4938131;28;11659;-80
2022/10/02 04:35:30;;;;;;;;;;;;;;;18.25;61.71;100509.50;4929448;28;7099;-81
2022/10/02 04:38:17;;;;;;;;;;;;;;;18.21;61.48;100521.56;4939522;28;6991;-80
2022/10/02 04:41:05;;;;;;;;;;;;;;;18.17;61.12;100512.84;4938513;28;8428;-80
2022/10/02 04:44:00;;;;;;;;;;;;;;;18.18;61.38;100521.47;4938666;28;7247;-78
2022/10/02 04:47:00;;;;;;;;;;;;;;;18.17;61.85;100520.63;4937309;28;7221;-80
2022/10/02 04:49:58;;;;;;;;;;;;;;;18.15;61.43;100519.69;4938907;28;7240;-80
2022/10/02 04:53:11;;;;;;;;;;;;;;;18.14;61.32;100530.91;4937603;28;6816;-81
2022/10/02 04:56:19;;;;;;;;;;;;;;;18.13;61.51;100531.78;4925337;28;8258;-80
2022/10/02 04:59:12;;;;;;;;;;;;;;;18.11;61.25;100525.69;4939492;28;6812;-80
2022/10/02 05:02:18;;;;;;;;;;;;;;;18.11;61.37;100535.19;4939816;28;7000;-80
2022/10/02 05:05:06;;;;;;;;;;;;;;;18.08;61.84;100527.34;4939263;28;7278;-79
2022/10/02 05:08:26;;;;;;;;;;;;;;;18.06;62.05;100532.53;4938251;28;7156;-77
2022/10/02 05:11:23;;;;;;;;;;;;;;;18.03;62.15;100538.50;4940478;28;6816;-81
2022/10/02 05:14:29;;;;;;;;;;;;;;;18.01;62.02;100536.69;4940038;28;7092;-81
2022/10/02 05:17:30;;;;;;;;;;;;;;;17.99;61.84;100546.16;4920475;29;6816;-79
2022/10/02 05:20:47;;;;;;;;;;;;;;;17.99;62.00;100548.75;4937760;28;7145;-78
2022/10/02 05:23:37;;;;;;;;;;;;;;;17.94;62.40;100543.50;4895309;29;6984;-80
2022/10/02 05:26:30;;;;;;;;;;;;;;;17.91;61.85;100548.59;4936961;28;6823;-80
2022/10/02 05:29:14;;;;;;;;;;;;;;;17.90;62.49;100546.84;4939869;28;7269;-83
2022/10/02 05:32:04;;;;;;;;;;;;;;;17.89;62.35;100542.50;4938979;28;6812;-80
2022/10/02 05:35:05;;;;;;;;;;;;;;;17.88;62.55;100538.16;4939714;29;6880;-80
2022/10/02 05:38:11;;;;;;;;;;;;;;;17.88;62.82;100543.34;4939436;28;7323;-81
2022/10/02 05:41:05;;;;;;;;;;;;;;;17.86;62.67;100539.84;4944841;28;6804;-79
2022/10/02 05:43:33;;;;;;;;;;;;;;;17.85;62.68;100551.94;4939247;28;7007;-80
2022/10/02 05:46:10;;;;;;;;;;;;;;;17.88;62.46;100556.31;4944957;28;6972;-81
2022/10/02 05:48:57;;;;;;;;;;;;;;;17.87;62.24;100546.78;4943531;28;6808;-80
2022/10/02 05:51:46;;;;;;;;;;;;;;;17.87;62.44;100557.16;4943116;28;7706;-81
2022/10/02 05:54:26;;;;;;;;;;;;;;;17.85;62.13;100554.53;4944113;28;7047;-78
2022/10/02 05:57:20;;;;;;;;;;;;;;;17.82;61.96;100544.09;4945942;28;7199;-80
2022/10/02 06:00:03;;;;;;;;;;;;;;;17.80;62.68;100550.97;4918417;28;7002;-81
2022/10/02 06:02:33;;;;;;;;;;;;;;;17.76;61.99;100555.22;4941265;28;7696;-81
2022/10/02 06:05:53;;;;;;;;;;;;;;;17.75;62.34;100560.38;4941974;28;6789;-81
2022/10/02 06:08:40;;;;;;;;;;;;;;;17.71;61.92;100555.97;4934229;28;6808;-81
2022/10/02 06:11:25;;;;;;;;;;;;;;;17.69;62.52;100568.88;4941432;28;6960;-80
2022/10/02 06:14:04;;;;;;;;;;;;;;;17.69;62.14;100573.22;4941880;28;6800;-78
2022/10/02 06:16:37;;;;;;;;;;;;;;;17.68;62.33;100577.50;4916478;28;8490;-79
2022/10/02 06:19:16;;;;;;;;;;;;;;;17.67;61.96;100578.34;4942259;28;8434;-82
2022/10/02 06:21:54;;;;;;;;;;;;;;;17.68;62.15;100587.88;4940805;28;6811;-83
2022/10/02 06:25:07;;;;;;;;;;;;;;;17.67;62.13;100590.41;4942039;28;7064;-80
2022/10/02 06:27:56;;;;;;;;;;;;;;;17.62;61.68;100591.22;4945362;28;7393;-81
2022/10/02 06:30:22;;;;;;;;;;;;;;;17.63;61.92;100605.06;4942820;28;7231;-77
2022/10/02 06:32:54;;;;;;;;;;;;;;;17.62;61.92;100595.50;4943079;28;7181;-82
2022/10/02 06:35:50;;;;;;;;;;;;;;;17.60;61.91;100600.69;4943593;28;6796;-81
2022/10/02 06:38:50;;;;;;;;;;;;;;;17.57;62.09;100608.34;4942858;28;7362;-78
2022/10/02 06:41:46;;;;;;;;;;;;;;;17.53;61.88;100613.44;4940755;28;7087;-81
2022/10/02 06:44:35;;;;;;;;;;;;;;;17.48;61.81;100618.53;4942621;28;6808;-81
2022/10/02 06:47:24;;;;;;;;;;;;;;;17.47;62.08;100617.66;4942412;28;7251;-80
2022/10/02 06:50:18;;;;;;;;;;;;;;;17.46;62.17;100615.03;4934113;28;6800;-82
2022/10/02 06:53:04;;;;;;;;;;;;;;;17.42;61.60;100613.22;4943000;28;8419;-82
2022/10/02 06:55:47;;;;;;;;;;;;;;;17.39;62.30;100623.50;4940873;28;8068;-81
2022/10/02 06:58:34;;;;;;;;;;;;;;;17.37;61.93;100617.41;4943920;28;7247;-79
2022/10/02 07:01:15;;;;;;;;;;;;;;;17.34;62.19;100621.66;4924573;28;7443;-80
2022/10/02 07:04:41;;;;;;;;;;;;;;;17.36;62.00;100629.50;4941691;28;7192;-81
2022/10/02 07:07:59;;;;;;;;;;;;;;;17.33;61.77;100630.28;4941680;28;8445;-81
2022/10/02 07:11:02;;;;;;;;;;;;;;;17.33;62.21;100638.06;4922733;28;6997;-81
2022/10/02 07:13:52;;;;;;;;;;;;;;;17.37;62.28;100640.72;4938144;28;7417;-79
2022/10/02 07:16:23;;;;;;;;;;;;;;;17.39;62.06;100632.16;4939713;28;7011;-80
2022/10/02 07:19:15;;;;;;;;;;;;;;;17.41;62.14;100634.78;4941036;28;7211;-81
2022/10/02 07:22:18;;;;;;;;;;;;;;;17.42;62.02;100626.16;4939554;28;6989;-79
2022/10/02 07:25:47;;;;;;;;;;;;;;;17.43;62.48;100633.09;4938032;28;6999;-81
2022/10/02 07:28:29;;;;;;;;;;;;;;;17.45;62.21;100641.78;4922364;28;7168;-82
2022/10/02 07:31:19;;;;;;;;;;;;;;;17.48;62.52;100641.88;4939309;28;9704;-82
2022/10/02 07:34:16;;;;;;;;;;;;;;;17.53;62.81;100650.59;4939189;28;7208;-81
2022/10/02 07:37:10;;;;;;;;;;;;;;;17.58;62.73;100654.19;4941011;28;7011;-80
2022/10/02 07:39:48;;;;;;;;;;;;;;;17.63;62.52;100649.97;4942404;28;6990;-81
2022/10/02 07:42:23;;;;;;;;;;;;;;;17.69;62.17;100651.84;4941139;28;8257;-81
2022/10/02 07:45:20;;;;;;;;;;;;;;;17.72;62.53;100651.91;4939608;28;7061;-78
2022/10/02 07:48:10;;;;;;;;;;;;;;;17.75;62.83;100651.09;4941196;28;8471;-81
2022/10/02 07:51:45;;;;;;;;;;;;;;;17.75;62.65;100645.91;4938404;28;7059;-82
2022/10/02 07:54:33;;;;;;;;;;;;;;;17.74;62.44;100646.75;4941271;28;7810;-80
2022/10/02 07:57:21;;;;;;;;;;;;;;;17.77;62.27;100652.88;4930988;28;7037;-80
2022/10/02 07:59:50;;;;;;;;;;;;;;;17.84;62.39;100653.03;4940926;28;8379;-81
2022/10/02 08:02:44;;;;;;;;;;;;;;;17.88;62.36;100663.50;4939662;28;7138;-79
2022/10/02 08:05:22;;;;;;;;;;;;;;;17.91;62.38;100653.19;4941249;28;8608;-80
2022/10/02 08:07:56;;;;;;;;;;;;;;;17.97;61.88;100655.03;4931725;28;6804;-80
2022/10/02 08:10:31;;;;;;;;;;;;;;;18.03;62.09;100659.47;4937784;28;7015;-81
2022/10/02 08:13:27;;;;;;;;;;;;;;;18.09;62.54;100667.44;4940065;28;7190;-76
2022/10/02 08:15:55;;;;;;;;;;;;;;;18.18;61.83;100670.22;4909992;28;6884;-78
2022/10/02 08:18:37;;;;;;;;;;;;;;;18.24;62.27;100661.69;4903812;28;6849;-80
2022/10/02 08:21:13;;;;;;;;;;;;;;;18.30;61.89;100673.91;4923085;28;6981;-80
2022/10/02 08:23:49;;;;;;;;;;;;;;;18.35;61.61;100672.31;4941265;28;7258;-80
2022/10/02 08:26:23;;;;;;;;;;;;;;;18.42;62.18;100676.75;4939793;28;7219;-79
2022/10/02 08:29:31;;;;;;;;;;;;;;;18.48;62.39;100672.53;4939332;28;6792;-79
2022/10/02 08:31:57;;;;;;;;;;;;;;;18.55;62.20;100671.81;4935344;28;8484;-79
2022/10/02 08:34:24;;;;;;;;;;;;;;;18.63;62.26;100678.00;4940420;28;6776;-79
2022/10/02 08:37:24;;;;;;;;;;;;;;;18.74;61.93;100688.59;4938586;28;6860;-79
2022/10/02 08:40:41;;;;;;;;;;;;;;;18.87;62.24;100694.91;4941125;28;7501;-79
2022/10/02 08:43:43;;;;;;;;;;;;;;;18.99;61.93;100702.91;4937063;28;7015;-80
2022/10/02 08:47:01;;;;;;;;;;;;;;;19.13;61.45;100710.13;4940208;28;7300;-80
2022/10/02 08:49:53;;;;;;;;;;;;;;;19.23;61.23;100717.22;4923921;28;7219;-79
2022/10/02 08:53:07;;;;;;;;;;;;;;;19.31;61.55;100712.16;4937710;28;7240;-80
2022/10/02 08:56:04;;;;;;;;;;;;;;;19.47;61.47;100718.47;4917066;28;8579;-79
2022/10/02 08:58:37;;;;;;;;;;;;;;;19.70;61.70;100717.97;4939756;28;7089;-79
2022/10/02 09:01:45;;;;;;;;;;;;;;;19.90;60.67;100717.41;4938957;28;6800;-79
2022/10/02 09:04:37;;;;;;;;;;;;;;;20.10;60.84;100710.78;4895219;28;7182;-78
2022/10/02 09:07:52;;;;;;;;;;;;;;;20.28;60.33;100717.09;4939395;28;7335;-80
2022/10/02 09:10:50;;;;;;;;;;;;;;;20.35;59.05;100712.84;4922731;29;7012;-79
2022/10/02 09:14:04;;;;;;;;;;;;;;;20.43;59.74;100707.72;4941088;28;7336;-80
2022/10/02 09:17:15;;;;;;;;;;;;;;;20.51;59.12;100706.09;4939803;28;6844;-79
2022/10/02 09:20:21;;;;;;;;;;;;;;;20.59;59.00;100713.97;4939194;28;7009;-79
2022/10/02 09:23:24;;;;;;;;;;;;;;;20.65;58.86;100711.47;4936595;28;7019;-79
2022/10/02 09:26:49;;;;;;;;;;;;;;;20.68;58.47;100712.38;4940419;28;7311;-79
2022/10/02 09:29:54;;;;;;;;;;;;;;;20.71;58.14;100706.31;4938215;28;7022;-79
2022/10/02 09:33:02;;;;;;;;;;;;;;;20.70;58.00;100707.16;4940115;28;6812;-78
2022/10/02 09:36:02;;;;;;;;;;;;;;;20.65;57.90;100714.06;4938140;28;6811;-79
2022/10/02 09:38:43;;;;;;;;;;;;;;;20.60;57.79;100715.72;4923870;28;8429;-79
2022/10/02 09:41:48;;;;;;;;;;;;;;;20.57;58.05;100727.00;4938433;28;6996;-79
2022/10/02 09:44:47;;;;;;;;;;;;;;;20.60;58.30;100731.34;4936196;28;6974;-79
2022/10/02 09:48:03;;;;;;;;;;;;;;;20.64;58.10;100728.81;4938018;28;6994;-79
2022/10/02 09:51:22;;;;;;;;;;;;;;;20.75;57.83;100738.47;4922017;29;7153;-80
2022/10/02 09:54:28;;;;;;;;;;;;;;;20.79;57.93;100738.50;4937607;28;8095;-79
2022/10/02 09:57:34;;;;;;;;;;;;;;;20.90;58.22;100730.88;4938560;28;7040;-80
2022/10/02 10:00:31;;;;;;;;;;;;;;;21.09;57.80;100737.13;4903759;29;7256;-77
2022/10/02 10:03:37;;;;;;;;;;;;;;;21.26;57.35;100739.03;4935933;28;11491;-78
2022/10/02 10:06:28;;;;;;;;;;;;;;;21.39;57.37;100728.69;4940024;28;7354;-80
2022/10/02 10:09:54;;;;;;;;;;;;;;;21.58;57.13;100730.59;4940100;28;7196;-80
2022/10/02 10:13:00;;;;;;;;;;;;;;;21.71;56.19;100734.19;4941597;28;8156;-81
2022/10/02 10:15:57;;;;;;;;;;;;;;;21.75;55.73;100732.50;4939699;28;6874;-80
2022/10/02 10:19:05;;;;;;;;;;;;;;;21.68;55.24;100742.00;4938809;28;7018;-80
2022/10/02 10:22:12;;;;;;;;;;;;;;;21.51;55.30;100740.09;4938991;28;7056;-79
2022/10/02 10:25:37;;;;;;;;;;;;;;;21.28;55.38;100754.69;4943703;28;7324;-80
2022/10/02 10:28:27;;;;;;;;;;;;;;;21.04;55.44;100749.25;4924915;28;7211;-80
2022/10/02 10:31:45;;;;;;;;;;;;;;;20.82;55.66;100755.94;4942706;28;7190;-78
2022/10/02 10:34:55;;;;;;;;;;;;;;;20.66;56.08;100763.53;4925293;28;8401;-79
2022/10/02 10:38:31;;;;;;;;;;;;;;;20.57;56.60;100760.84;4933247;28;7037;-80
2022/10/02 10:41:45;;;;;;;;;;;;;;;20.73;57.76;100767.13;4928935;28;7065;-80
2022/10/02 10:44:13;;;;;;;;;;;;;;;21.07;57.85;100779.69;4941284;28;7044;-78
2022/10/02 10:46:58;;;;;;;;;;;;;;;21.37;57.42;100781.69;4943180;28;7052;-80
2022/10/02 10:50:13;;;;;;;;;;;;;;;21.69;57.60;100780.28;4943712;28;6836;-80
2022/10/02 10:53:21;;;;;;;;;;;;;;;22.30;56.67;100784.16;4941941;28;7219;-81
2022/10/02 10:56:28;;;;;;;;;;;;;;;22.70;55.32;100790.50;4942855;28;7233;-80
2022/10/02 10:59:34;;;;;;;;;;;;;;;22.84;54.54;100791.41;4939782;28;7220;-79
2022/10/02 11:02:53;;;;;;;;;;;;;;;23.02;54.18;100789.72;4941414;28;7000;-81
2022/10/02 11:06:07;;;;;;;;;;;;;;;23.32;54.12;100801.13;4942874;28;7403;-80
2022/10/02 11:08:54;;;;;;;;;;;;;;;23.40;52.50;100802.00;4921231;28;8798;-79
2022/10/02 11:11:50;;;;;;;;;;;;;;;23.39;52.70;100794.16;4940027;28;8775;-81
2022/10/02 11:14:58;;;;;;;;;;;;;;;23.27;52.21;100802.81;4940994;28;7181;-81
2022/10/02 11:17:52;;;;;;;;;;;;;;;23.17;52.29;100808.03;4940205;28;8547;-80
2022/10/02 11:20:29;;;;;;;;;;;;;;;23.15;52.41;100796.69;4942072;28;7183;-80
2022/10/02 11:23:03;;;;;;;;;;;;;;;23.11;51.58;100796.69;4942004;28;6808;-81
2022/10/02 11:26:20;;;;;;;;;;;;;;;23.00;52.19;100801.91;4943153;28;7270;-80
2022/10/02 11:29:19;;;;;;;;;;;;;;;22.96;52.15;100795.78;4940813;28;6828;-80
2022/10/02 11:32:27;;;;;;;;;;;;;;;23.09;52.20;100782.75;4941522;28;7192;-80
2022/10/02 11:35:47;;;;;;;;;;;;;;;23.21;51.36;100790.59;4941648;28;6991;-79
2022/10/02 11:38:52;;;;;;;;;;;;;;;23.22;51.01;100794.09;4940422;28;6815;-80
2022/10/02 11:42:13;;;;;;;;;;;;;;;23.25;51.90;100799.31;4924103;28;8675;-80
2022/10/02 11:45:13;;;;;;;;;;;;;;;23.55;50.86;100795.91;4919594;29;7389;-79
2022/10/02 11:48:02;;;;;;;;;;;;;;;23.77;50.06;100790.69;4939040;28;6997;-80
2022/10/02 11:51:09;;;;;;;;;;;;;;;23.83;49.93;100808.13;4940126;28;7208;-80
2022/10/02 11:54:18;;;;;;;;;;;;;;;23.99;50.13;100796.78;4939632;28;8445;-80
2022/10/02 11:57:31;;;;;;;;;;;;;;;24.36;49.38;100793.22;4944023;28;7377;-80
2022/10/02 12:00:29;;;;;;;;;;;;;;;24.59;48.39;100796.63;4936638;28;6800;-80
2022/10/02 12:03:16;;;;;;;;;;;;;;;24.60;48.14;100798.38;4940331;28;11642;-81
2022/10/02 12:06:14;;;;;;;;;;;;;;;24.68;48.47;100801.84;4940929;28;6796;-81
2022/10/02 12:09:05;;;;;;;;;;;;;;;24.85;47.93;100803.56;4942164;28;8313;-79
2022/10/02 12:12:10;;;;;;;;;;;;;;;24.94;47.74;100800.88;4938370;28;8108;-79
2022/10/02 12:15:24;;;;;;;;;;;;;;;24.86;47.78;100802.69;4940184;28;8171;-79
2022/10/02 12:18:31;;;;;;;;;;;;;;;24.68;47.10;100802.72;4941876;28;7078;-80
2022/10/02 12:28:15;;;;;;;;;;;;;;;24.26;48.22;100797.63;4941436;28;6796;-81
2022/10/02 12:30:48;;;;;;;;;;;;;;;24.26;48.42;100788.88;4929027;28;8555;-80
2022/10/02 12:33:40;;;;;;;;;;;;;;;24.20;47.88;100800.25;4941675;28;7467;-81
2022/10/02 12:36:41;;;;;;;;;;;;;;;24.05;47.51;100797.69;4939899;28;7862;-80
2022/10/02 12:39:56;;;;;;;;;;;;;;;23.85;47.48;100793.28;4941168;28;6808;-79
2022/10/02 12:42:46;;;;;;;;;;;;;;;23.67;48.24;100795.06;4922319;28;7194;-81
2022/10/02 12:45:26;;;;;;;;;;;;;;;23.47;47.75;100794.16;4940398;28;7025;-80
2022/10/02 12:48:44;;;;;;;;;;;;;;;23.25;48.02;100796.72;4942375;28;7209;-79
2022/10/02 12:51:37;;;;;;;;;;;;;;;22.95;47.97;100798.41;4939330;28;7911;-80
2022/10/02 12:54:24;;;;;;;;;;;;;;;22.72;48.76;100796.59;4938789;28;8892;-80
2022/10/02 12:57:52;;;;;;;;;;;;;;;22.54;48.92;100798.25;4940129;28;6792;-79
2022/10/02 13:00:29;;;;;;;;;;;;;;;22.32;49.37;100797.22;4940233;28;6966;-80
2022/10/02 13:03:29;;;;;;;;;;;;;;;22.20;48.98;100798.00;4938290;28;7236;-80
2022/10/02 13:06:42;;;;;;;;;;;;;;;22.06;49.70;100795.31;4940880;28;8041;-80
2022/10/02 13:09:35;;;;;;;;;;;;;;;21.97;49.74;100805.69;4942529;28;7135;-80
2022/10/02 13:12:43;;;;;;;;;;;;;;;21.91;49.94;100806.50;4939621;28;6824;-81
2022/10/02 13:15:42;;;;;;;;;;;;;;;21.88;50.58;100806.50;4939292;28;7215;-80
2022/10/02 13:18:42;;;;;;;;;;;;;;;21.88;50.57;100812.59;4939760;28;7158;-81
2022/10/02 13:21:34;;;;;;;;;;;;;;;21.90;50.30;100813.50;4941415;28;7187;-80
2022/10/02 13:24:43;;;;;;;;;;;;;;;21.93;50.53;100823.09;4938388;28;6821;-80
2022/10/02 13:27:41;;;;;;;;;;;;;;;21.91;50.25;100830.88;4941097;28;6972;-79
2022/10/02 13:30:17;;;;;;;;;;;;;;;21.87;50.50;100823.88;4939927;28;6824;-79
2022/10/02 13:33:12;;;;;;;;;;;;;;;21.89;50.63;100831.72;4939110;28;11401;-80
2022/10/02 13:36:18;;;;;;;;;;;;;;;21.92;50.57;100834.34;4938677;28;7068;-80
2022/10/02 13:39:02;;;;;;;;;;;;;;;21.93;50.85;100843.97;4938587;28;7002;-79
2022/10/02 13:41:55;;;;;;;;;;;;;;;21.95;51.06;100844.84;4938704;28;7221;-80
2022/10/02 13:44:35;;;;;;;;;;;;;;;21.96;50.94;100843.97;4938708;28;7452;-78
2022/10/02 13:47:31;;;;;;;;;;;;;;;21.99;50.99;100851.81;4940207;28;6936;-80
2022/10/02 13:50:27;;;;;;;;;;;;;;;22.02;51.19;100841.41;4939669;28;7137;-79
2022/10/02 13:53:42;;;;;;;;;;;;;;;22.08;50.96;100844.91;4939281;28;7011;-80
2022/10/02 13:56:35;;;;;;;;;;;;;;;22.11;50.99;100851.03;4940373;28;6807;-80
2022/10/02 13:59:21;;;;;;;;;;;;;;;22.20;51.04;100855.44;4939999;28;7217;-79
2022/10/02 14:02:04;;;;;;;;;;;;;;;22.25;50.41;100860.69;4940748;28;7557;-79
2022/10/02 14:05:04;;;;;;;;;;;;;;;22.24;50.48;100854.63;4944333;28;7136;-80
2022/10/02 14:07:51;;;;;;;;;;;;;;;22.28;50.70;100858.13;4941553;28;6972;-79
2022/10/02 14:11:04;;;;;;;;;;;;;;;22.28;50.51;100864.19;4944803;28;7200;-79
2022/10/02 14:13:54;;;;;;;;;;;;;;;22.30;50.32;100862.47;4928488;28;7263;-80
2022/10/02 14:17:21;;;;;;;;;;;;;;;22.28;50.45;100856.38;4930474;28;8445;-79
2022/10/02 14:20:41;;;;;;;;;;;;;;;22.27;50.14;100866.81;4942058;28;7219;-80
2022/10/02 14:23:21;;;;;;;;;;;;;;;22.25;50.38;100858.09;4917051;29;7249;-79
2022/10/02 14:26:19;;;;;;;;;;;;;;;22.24;50.07;100846.78;4942208;28;7009;-80
2022/10/02 14:29:31;;;;;;;;;;;;;;;22.27;50.43;100840.72;4941216;28;6964;-79
2022/10/02 14:32:19;;;;;;;;;;;;;;;22.28;50.37;100858.13;4938782;28;6998;-80
2022/10/02 14:35:27;;;;;;;;;;;;;;;22.33;50.30;100862.50;4941435;28;8415;-80
2022/10/02 14:38:11;;;;;;;;;;;;;;;22.50;50.02;100863.50;4944997;28;7343;-79
2022/10/02 14:40:53;;;;;;;;;;;;;;;22.72;50.40;100857.53;4940978;28;7200;-80
2022/10/02 14:43:53;;;;;;;;;;;;;;;23.05;50.16;100860.28;4941949;28;7196;-80
2022/10/02 14:46:43;;;;;;;;;;;;;;;23.29;49.25;100853.44;4942752;28;8425;-80
2022/10/02 14:49:22;;;;;;;;;;;;;;;23.42;48.42;100855.19;4940461;28;7212;-79
2022/10/02 14:52:21;;;;;;;;;;;;;;;23.41;47.85;100860.41;4939167;28;8542;-78
2022/10/02 14:55:07;;;;;;;;;;;;;;;23.35;47.83;100861.25;4936997;28;6809;-80
2022/10/02 14:57:45;;;;;;;;;;;;;;;23.35;47.70;100876.09;4942087;28;7052;-80